Virtual Norwegian Aeroclub

Virtual Norwegian Aeroclub! A new look to our va.




 METAR AND TAF INFORMATION
METAR FOR ENAL
ADDS - METARS form results

(0228 UTC 24 August 2019)
Data provider http://aviationweather.gov/metar/data/
 
METAR text: ENAL 240220Z AUTO 13010KT 9999 R24///// OVC025/// 13/12 Q1020
Conditions at: ENAL (ALESUND/VIGRA , NO) observed 0220 UTC 24 August 2019
Temperature: 13.0°C (55°F)
Dewpoint: 12.0°C (54°F) [RH = 94%]
Pressure (altimeter): 30.12 inches Hg (1020.0 mb)
Winds: from the SE (130 degrees) at 12 MPH (10 knots; 5.1 m/s)
Visibility: 6 or more miles (10+ km)
Ceiling: 2500 feet AGL
Clouds: overcast cloud deck at 2500 feet AGL
Weather: no significant weather observed at this time

METAR text: ENAL 240150Z AUTO 15006KT 9999 R24///// -RA OVC027/// 13/12 Q1020 REDZ
Conditions at: ENAL (ALESUND/VIGRA , NO) observed 0150 UTC 24 August 2019
Temperature: 13.0°C (55°F)
Dewpoint: 12.0°C (54°F) [RH = 94%]
Pressure (altimeter): 30.12 inches Hg (1020.0 mb)
Winds: from the SSE (150 degrees) at 7 MPH (6 knots; 3.1 m/s)
Visibility: 6 or more miles (10+ km)
Ceiling: 2700 feet AGL
Clouds: overcast cloud deck at 2700 feet AGL
Weather: -RA  (light rain)

Forecast for: ENAL (ALESUND/VIGRA , NO)
Text: TAF ENAL 231700Z 2318/2321 24012KT 9999 -SHRA FEW012TCU BKN025
Forecast period: 1800 to 2100 UTC 23 August 2019
Forecast type: FROM: standard forecast or significant change
Winds: from the WSW (240 degrees) at 14 MPH (12 knots; 6.2 m/s)
Visibility: 6 or more miles 10+ km)
Ceiling: 2500 feet AGL
Clouds: few clouds at 1200 feet AGL
broken clouds at 2500 feet AGL
Weather: -SHRA  (light rain showers)
Text: PROB30 2318/2321 VRB06KT
Forecast period: 1800 to 2100 UTC 23 August 2019
Forecast type: PROBABLE: 30 percent likelihood of the following during this time
Winds: variable direction winds at 7 MPH (6 knots; 3.1 m/s)
Visibility: missing
Ceiling: unknown
Clouds: missing
Weather: no significant weather forecast for this period

 AIRPORT MAP

 RUNWAY INFORMATION
Runway 07 Runway length 7592 ft Runway width 148 ft
Runway elevation 34 ft Runway displaced threshold 490 ft Runway heading 65
Runway 25 Runway length 7592 ft Runway width 148 ft
Runway elevation 48 ft Runway displaced threshold 755 ft Runway heading 245

 AIRPORT FREQUENCIES
Type ATIS Name ATIS Frequency 128.65 MHZ
Type TWR Name TWR Frequency 119.85 MHZ

 AIRPORT NEAR NAVIGATION AIDS
Type NDB Name Vigra Frequency 355 KHZ
Type TACAN Name Vigra Frequency 112400 KHZ
Type VOR-DME Name Vigra Frequency 115800 KHZ